Time;durP1;ratioP1;P1;durP2;ratioP2;P2;SDS_P1;SDS_P2;PMS_P1;PMS_P2;Temp;Humidity;BMP_temperature;BMP_pressure;BME280_temperature;BME280_humidity;BME280_pressure;Samples;Min_cycle;Max_cycle;Signal;HPM_P1;HPM_P2
2021/12/10 00:01:51;;;;;;;12.10;6.05;;;6.40;85.00;;;;;;4979543;28;20110;-76
2021/12/10 00:04:19;;;;;;;19.13;10.00;;;6.40;85.10;;;;;;4984527;28;20039;-77
2021/12/10 00:06:49;;;;;;;15.95;7.68;;;6.40;85.00;;;;;;4986488;28;20034;-76
2021/12/10 00:09:20;;;;;;;12.18;6.70;;;6.30;84.90;;;;;;4980544;28;20122;-77
2021/12/10 00:11:49;;;;;;;11.02;6.75;;;6.30;85.00;;;;;;4986212;28;20029;-76
2021/12/10 00:14:16;;;;;;;8.57;5.05;;;6.40;85.10;;;;;;4981456;28;20030;-77
2021/12/10 00:16:44;;;;;;;8.93;5.10;;;6.30;85.10;;;;;;4987764;28;20026;-76
2021/12/10 00:19:29;;;;;;;9.98;6.13;;;6.40;85.20;;;;;;4983749;28;20015;-76
2021/12/10 00:21:57;;;;;;;12.55;7.40;;;6.30;84.90;;;;;;4978299;28;20072;-76
2021/12/10 00:24:26;;;;;;;12.57;6.75;;;6.30;84.90;;;;;;4981705;28;20042;-77
2021/12/10 00:26:52;;;;;;;15.45;7.82;;;6.30;84.90;;;;;;4991581;28;20042;-76
2021/12/10 00:29:19;;;;;;;14.90;7.50;;;6.20;84.80;;;;;;4985558;28;20050;-77
2021/12/10 00:31:57;;;;;;;14.93;8.35;;;6.20;84.70;;;;;;4979359;28;20205;-76
2021/12/10 00:34:35;;;;;;;9.85;6.13;;;6.10;84.70;;;;;;4978813;28;20029;-76
2021/12/10 00:37:05;;;;;;;11.80;7.47;;;6.20;84.90;;;;;;4985287;28;20105;-77
2021/12/10 00:39:35;;;;;;;11.50;6.40;;;6.20;84.80;;;;;;4977822;28;20019;-77
2021/12/10 00:42:04;;;;;;;10.85;6.97;;;6.20;84.80;;;;;;4979614;28;20027;-77
2021/12/10 00:44:29;;;;;;;10.88;6.47;;;6.10;84.70;;;;;;4978642;28;20035;-77
2021/12/10 00:46:55;;;;;;;15.27;8.07;;;6.20;84.90;;;;;;4981477;28;20092;-76
2021/12/10 00:49:21;;;;;;;7.57;4.97;;;6.20;84.70;;;;;;4981673;28;20022;-76
2021/12/10 00:51:46;;;;;;;8.27;5.05;;;6.20;84.90;;;;;;4982905;28;20041;-77
2021/12/10 00:54:13;;;;;;;11.05;5.35;;;6.30;84.90;;;;;;4980969;28;20477;-76
2021/12/10 00:56:41;;;;;;;8.27;5.50;;;6.30;84.80;;;;;;4983662;28;20505;-76
2021/12/10 00:59:08;;;;;;;9.63;5.57;;;6.30;84.80;;;;;;4986292;28;20030;-76
2021/12/10 01:01:34;;;;;;;12.10;6.80;;;6.40;84.90;;;;;;4974252;28;20065;-76
2021/12/10 01:04:22;;;;;;;13.73;7.80;;;6.40;84.80;;;;;;4983877;28;20528;-76
2021/12/10 01:06:51;;;;;;;15.75;7.70;;;6.30;84.40;;;;;;4977912;28;20089;-76
2021/12/10 01:09:22;;;;;;;10.40;6.25;;;6.20;84.30;;;;;;4981306;28;20062;-76
2021/12/10 01:11:52;;;;;;;12.50;6.78;;;6.10;84.40;;;;;;4982699;28;20022;-76
2021/12/10 01:14:34;;;;;;;10.40;6.65;;;6.20;84.70;;;;;;4981526;28;20026;-76
2021/12/10 01:25:34;;;;;;;12.30;7.50;;;6.10;84.20;;;;;;4983104;28;20046;-77
2021/12/10 01:28:00;;;;;;;13.02;7.03;;;6.00;84.30;;;;;;4985840;28;20073;-77
2021/12/10 01:30:30;;;;;;;13.70;6.88;;;6.00;84.60;;;;;;4981005;28;20117;-77
2021/12/10 01:33:09;;;;;;;13.52;8.57;;;6.00;84.70;;;;;;4976918;28;20018;-77
2021/12/10 01:35:40;;;;;;;13.85;9.07;;;5.90;84.40;;;;;;4985508;28;20041;-76
2021/12/10 01:38:08;;;;;;;9.35;7.05;;;5.80;84.20;;;;;;4985357;28;20109;-76
2021/12/10 01:40:36;;;;;;;8.75;6.43;;;5.80;84.40;;;;;;4979708;28;20386;-76
2021/12/10 01:43:06;;;;;;;12.02;7.38;;;5.90;84.70;;;;;;4980903;28;20446;-77
2021/12/10 01:45:46;;;;;;;11.27;6.38;;;5.90;84.40;;;;;;4979442;28;20018;-76
2021/12/10 01:48:19;;;;;;;14.43;8.68;;;5.90;84.70;;;;;;4980956;28;20403;-77
2021/12/10 01:50:46;;;;;;;12.55;7.95;;;5.80;84.40;;;;;;4986503;28;20117;-76
2021/12/10 01:53:15;;;;;;;11.32;7.57;;;5.70;84.30;;;;;;4982847;28;20030;-78
2021/12/10 01:55:44;;;;;;;12.90;7.95;;;5.70;84.70;;;;;;4977039;28;20023;-79
2021/12/10 01:58:13;;;;;;;14.82;7.70;;;5.70;84.90;;;;;;4977568;28;20045;-79
2021/12/10 02:00:44;;;;;;;11.90;7.45;;;5.70;85.00;;;;;;4976816;28;20030;-78
2021/12/10 02:03:10;;;;;;;12.38;7.70;;;5.60;85.00;;;;;;4987616;28;20080;-79
2021/12/10 02:05:36;;;;;;;13.48;8.52;;;5.60;85.10;;;;;;4988082;28;20105;-79
2021/12/10 02:08:03;;;;;;;12.93;7.60;;;5.40;84.80;;;;;;4981889;28;20076;-79
2021/12/10 02:10:29;;;;;;;11.10;7.40;;;5.40;84.90;;;;;;4982299;28;20401;-79
2021/12/10 02:12:56;;;;;;;12.32;8.35;;;5.40;85.30;;;;;;4978705;28;20030;-78
2021/12/10 02:15:26;;;;;;;11.65;7.53;;;5.30;85.10;;;;;;4977004;28;20029;-79
2021/12/10 02:17:52;;;;;;;7.70;4.93;;;5.30;85.30;;;;;;4986936;28;20623;-77
2021/12/10 02:20:23;;;;;;;10.07;6.90;;;5.30;85.50;;;;;;4978083;28;20026;-77
2021/12/10 02:22:49;;;;;;;11.68;7.30;;;5.30;85.50;;;;;;4978849;28;20033;-77
2021/12/10 02:25:19;;;;;;;9.48;5.32;;;5.30;85.60;;;;;;4979557;28;20101;-77
2021/12/10 02:27:45;;;;;;;13.98;7.75;;;5.30;85.60;;;;;;4980746;28;20388;-77
2021/12/10 02:30:16;;;;;;;7.25;5.05;;;5.30;85.70;;;;;;4979687;28;20106;-77
2021/12/10 02:32:41;;;;;;;11.38;6.28;;;5.30;85.70;;;;;;4986643;28;20393;-76
2021/12/10 02:35:11;;;;;;;9.90;6.60;;;5.20;85.60;;;;;;4984870;28;20030;-77
2021/12/10 02:37:37;;;;;;;11.38;7.32;;;5.30;85.70;;;;;;4984808;28;20023;-77
2021/12/10 02:40:04;;;;;;;11.68;6.60;;;5.20;85.50;;;;;;4981497;28;20045;-77
2021/12/10 02:42:29;;;;;;;10.38;5.60;;;5.20;85.60;;;;;;4985076;28;20143;-77
2021/12/10 02:44:55;;;;;;;10.75;5.80;;;5.20;85.70;;;;;;4982794;28;20499;-77
2021/12/10 02:47:21;;;;;;;8.57;5.97;;;5.20;85.70;;;;;;4983687;28;20042;-80
2021/12/10 02:49:46;;;;;;;12.93;6.53;;;5.20;85.70;;;;;;4983483;28;20117;-77
2021/12/10 02:52:13;;;;;;;8.63;5.43;;;5.00;85.30;;;;;;4980807;28;20130;-78
2021/12/10 02:54:42;;;;;;;8.70;5.13;;;5.00;85.60;;;;;;4984289;28;20098;-78
2021/12/10 02:57:13;;;;;;;10.55;6.40;;;5.00;85.80;;;;;;4981790;28;20031;-78
2021/12/10 02:59:39;;;;;;;8.73;5.70;;;5.00;85.80;;;;;;4983057;28;20473;-77
2021/12/10 03:02:08;;;;;;;6.50;4.47;;;5.00;85.80;;;;;;4981271;28;20385;-77
2021/12/10 03:04:34;;;;;;;13.75;6.68;;;5.00;85.80;;;;;;4988796;28;20489;-78
2021/12/10 03:07:03;;;;;;;8.02;5.45;;;5.00;85.60;;;;;;4985301;28;20047;-77
2021/12/10 03:09:29;;;;;;;8.48;5.40;;;4.90;85.70;;;;;;4983454;28;20363;-79
2021/12/10 03:11:58;;;;;;;8.10;5.75;;;5.00;85.80;;;;;;4979890;28;20066;-78
2021/12/10 03:14:30;;;;;;;9.13;6.60;;;5.00;85.80;;;;;;4977771;28;20054;-78
2021/12/10 03:16:58;;;;;;;10.45;6.00;;;4.80;85.50;;;;;;4985342;28;20018;-78
2021/12/10 03:19:25;;;;;;;11.13;6.38;;;4.80;85.70;;;;;;4981099;28;20027;-78
2021/12/10 03:21:51;;;;;;;9.18;5.85;;;4.70;85.60;;;;;;4984075;28;20102;-78
2021/12/10 03:24:22;;;;;;;12.32;6.63;;;4.70;85.90;;;;;;4985814;28;20453;-78
2021/12/10 03:26:51;;;;;;;8.35;4.90;;;4.80;86.00;;;;;;4983637;28;20262;-78
2021/12/10 03:29:19;;;;;;;11.50;6.03;;;4.70;86.50;;;;;;4979108;28;20114;-76
2021/12/10 03:31:44;;;;;;;9.15;4.70;;;4.70;85.90;;;;;;4986344;28;20026;-76
2021/12/10 03:34:10;;;;;;;10.25;6.43;;;4.70;86.10;;;;;;4986298;28;20036;-78
2021/12/10 03:36:36;;;;;;;11.98;6.40;;;4.60;85.90;;;;;;4987424;28;20027;-78
2021/12/10 03:39:02;;;;;;;10.32;4.95;;;4.60;86.00;;;;;;4990253;28;20054;-77
2021/12/10 03:41:28;;;;;;;10.82;6.72;;;4.60;86.30;;;;;;4987494;28;20037;-77
2021/12/10 03:43:54;;;;;;;8.65;5.60;;;4.60;86.20;;;;;;4985268;28;20022;-78
2021/12/10 03:46:22;;;;;;;10.02;6.50;;;4.50;86.20;;;;;;4985558;28;20043;-78
2021/12/10 03:48:47;;;;;;;9.02;5.88;;;4.50;86.20;;;;;;4978665;28;20034;-78
2021/12/10 03:51:18;;;;;;;9.15;5.70;;;4.50;86.40;;;;;;4983449;28;20405;-78
2021/12/10 03:53:44;;;;;;;8.45;5.15;;;4.50;86.50;;;;;;4987788;28;20040;-78
2021/12/10 03:56:13;;;;;;;9.65;5.47;;;4.60;86.50;;;;;;4985011;28;20418;-78
2021/12/10 03:58:39;;;;;;;7.60;5.28;;;4.50;86.30;;;;;;4977754;28;20105;-77
2021/12/10 04:01:08;;;;;;;9.70;5.72;;;4.50;86.20;;;;;;4982580;28;20028;-77
2021/12/10 04:03:34;;;;;;;9.30;5.65;;;4.50;86.30;;;;;;4986195;28;20037;-78
2021/12/10 04:06:01;;;;;;;6.50;5.13;;;4.50;86.30;;;;;;4981871;28;20101;-77
2021/12/10 04:08:27;;;;;;;8.55;5.40;;;4.50;86.30;;;;;;4983749;28;20065;-77
2021/12/10 04:10:54;;;;;;;7.93;4.90;;;4.50;86.20;;;;;;4980735;28;20030;-79
2021/12/10 04:13:21;;;;;;;9.75;5.40;;;4.60;86.40;;;;;;4986858;28;20018;-78
2021/12/10 04:15:47;;;;;;;8.23;4.93;;;4.50;86.10;;;;;;4977399;28;20118;-79
2021/12/10 04:18:14;;;;;;;7.70;5.32;;;4.50;85.90;;;;;;4984979;28;20034;-78
2021/12/10 04:20:41;;;;;;;9.98;5.72;;;4.40;85.90;;;;;;4978601;28;20030;-77
2021/12/10 04:23:10;;;;;;;6.75;4.70;;;4.40;85.90;;;;;;4986040;28;20418;-77
2021/12/10 04:25:37;;;;;;;8.57;4.90;;;4.40;86.10;;;;;;4986866;28;20058;-79
2021/12/10 04:28:09;;;;;;;11.13;5.10;;;4.40;86.10;;;;;;4985440;28;20034;-77
2021/12/10 04:30:39;;;;;;;6.93;4.50;;;4.40;85.90;;;;;;4986309;28;20085;-76
2021/12/10 04:33:07;;;;;;;7.53;4.57;;;4.40;86.10;;;;;;4978304;28;20031;-76
2021/12/10 04:35:33;;;;;;;7.20;4.10;;;4.40;86.00;;;;;;4978472;28;20076;-76
2021/12/10 04:37:59;;;;;;;8.32;4.35;;;4.40;85.90;;;;;;4986796;28;20085;-77
2021/12/10 04:40:25;;;;;;;8.60;4.60;;;4.40;85.60;;;;;;4988712;28;20039;-76
2021/12/10 04:42:51;;;;;;;6.60;4.05;;;4.40;85.50;;;;;;4981188;28;20038;-77
2021/12/10 04:45:18;;;;;;;6.15;3.78;;;4.40;85.60;;;;;;4984186;28;20444;-77
2021/12/10 04:47:45;;;;;;;8.15;4.47;;;4.40;85.50;;;;;;4983048;28;20095;-76
2021/12/10 04:50:13;;;;;;;7.47;4.00;;;4.40;85.30;;;;;;4980360;28;20027;-77
2021/12/10 04:52:38;;;;;;;7.07;3.90;;;4.40;85.50;;;;;;4978013;28;20101;-76
2021/12/10 04:55:07;;;;;;;5.03;3.70;;;4.40;85.40;;;;;;4981240;28;20432;-76
2021/12/10 04:57:33;;;;;;;8.05;4.00;;;4.50;85.30;;;;;;4983646;28;20081;-77
2021/12/10 04:59:59;;;;;;;9.40;4.45;;;4.40;85.20;;;;;;4983936;28;20126;-76
2021/12/10 05:02:25;;;;;;;9.95;4.55;;;4.40;85.10;;;;;;4981027;28;20493;-77
2021/12/10 05:04:56;;;;;;;9.18;4.80;;;4.40;85.00;;;;;;4983185;28;20057;-76
2021/12/10 05:07:23;;;;;;;8.80;4.40;;;4.40;84.90;;;;;;4979818;28;20042;-78
2021/12/10 05:09:48;;;;;;;8.13;4.97;;;4.40;84.80;;;;;;4986643;28;20049;-77
2021/12/10 05:12:14;;;;;;;9.50;5.35;;;4.40;85.00;;;;;;4979320;28;20462;-78
2021/12/10 05:14:39;;;;;;;9.32;5.82;;;4.40;84.70;;;;;;4985672;28;20039;-77
2021/12/10 05:17:08;;;;;;;9.77;5.57;;;4.30;84.30;;;;;;4983658;28;20616;-78
2021/12/10 05:19:36;;;;;;;11.43;5.55;;;4.30;84.40;;;;;;4979164;28;20022;-78
2021/12/10 05:22:04;;;;;;;9.02;4.85;;;4.30;84.40;;;;;;4979474;28;20030;-77
2021/12/10 05:24:30;;;;;;;9.48;4.50;;;4.30;84.50;;;;;;4984780;28;20651;-77
2021/12/10 05:26:57;;;;;;;8.80;4.53;;;4.30;84.70;;;;;;4986312;28;20185;-77
2021/12/10 05:29:23;;;;;;;12.27;6.13;;;4.30;84.70;;;;;;4983004;28;20034;-78
2021/12/10 05:31:49;;;;;;;11.32;5.40;;;4.40;84.50;;;;;;4981954;28;20034;-79
2021/12/10 05:34:16;;;;;;;9.05;4.63;;;4.30;84.00;;;;;;4980689;28;20112;-79
2021/12/10 05:36:41;;;;;;;9.18;5.03;;;4.30;84.20;;;;;;4968510;28;20034;-80
2021/12/10 05:39:09;;;;;;;14.00;5.32;;;4.30;84.30;;;;;;4986884;28;20034;-79
2021/12/10 05:41:34;;;;;;;10.45;4.95;;;4.30;84.30;;;;;;4983044;28;20614;-79
2021/12/10 05:44:00;;;;;;;9.55;5.00;;;4.30;84.20;;;;;;4978609;28;20026;-79
2021/12/10 05:46:26;;;;;;;8.95;4.28;;;4.40;84.30;;;;;;4979062;28;20542;-79
2021/12/10 05:48:52;;;;;;;6.47;4.07;;;4.40;84.30;;;;;;4975615;28;20113;-79
2021/12/10 05:51:19;;;;;;;8.85;4.75;;;4.40;84.10;;;;;;4976009;28;20105;-78
2021/12/10 05:53:44;;;;;;;10.90;5.00;;;4.40;84.10;;;;;;4980524;28;20181;-77
2021/12/10 05:56:10;;;;;;;9.85;5.35;;;4.40;83.90;;;;;;4978788;28;20639;-78
2021/12/10 05:58:37;;;;;;;12.05;4.38;;;4.40;83.80;;;;;;4979648;28;20640;-78
2021/12/10 06:01:09;;;;;;;8.40;4.10;;;4.40;83.80;;;;;;4976009;28;20485;-77
2021/12/10 06:03:38;;;;;;;8.93;4.20;;;4.30;83.60;;;;;;4981553;28;20037;-78
2021/12/10 06:06:05;;;;;;;9.30;4.35;;;4.30;83.40;;;;;;4977094;28;20034;-78
2021/12/10 06:08:31;;;;;;;10.98;4.50;;;4.30;83.60;;;;;;4980809;28;20022;-78
2021/12/10 06:10:59;;;;;;;7.65;3.33;;;4.30;83.60;;;;;;4979099;28;20564;-78
2021/12/10 06:13:25;;;;;;;8.98;4.03;;;4.30;83.60;;;;;;4972564;28;20093;-78
2021/12/10 06:15:52;;;;;;;9.32;4.13;;;4.30;83.50;;;;;;4975926;28;20034;-79
2021/12/10 06:18:17;;;;;;;7.40;3.60;;;4.30;83.60;;;;;;4983157;28;20109;-78
2021/12/10 06:20:48;;;;;;;9.38;4.15;;;4.30;83.40;;;;;;4975525;28;20118;-78
2021/12/10 06:23:14;;;;;;;9.10;4.22;;;4.30;83.40;;;;;;4976666;28;20050;-78
2021/12/10 06:25:40;;;;;;;8.95;3.80;;;4.30;83.30;;;;;;4980355;28;20736;-78
2021/12/10 06:28:07;;;;;;;6.00;3.22;;;4.30;83.30;;;;;;4979552;28;20308;-78
2021/12/10 06:30:37;;;;;;;8.20;4.03;;;4.30;83.30;;;;;;4984438;28;20470;-78
2021/12/10 06:33:05;;;;;;;8.77;3.45;;;4.40;83.50;;;;;;4978689;28;20027;-78
2021/12/10 06:35:33;;;;;;;7.68;3.50;;;4.30;83.40;;;;;;4978186;28;20023;-77
2021/12/10 06:37:59;;;;;;;8.93;4.10;;;4.40;83.50;;;;;;4978593;28;20026;-78
2021/12/10 06:40:28;;;;;;;6.57;3.95;;;4.30;83.30;;;;;;4987383;28;20061;-78
2021/12/10 06:42:54;;;;;;;6.57;3.45;;;4.30;83.30;;;;;;4988460;28;20030;-78
2021/12/10 06:45:23;;;;;;;7.43;3.88;;;4.40;83.50;;;;;;4994040;28;20037;-78
2021/12/10 06:47:50;;;;;;;9.15;4.50;;;4.40;83.40;;;;;;4986958;28;20038;-77
2021/12/10 06:50:22;;;;;;;11.18;4.45;;;4.30;83.30;;;;;;4976421;28;20038;-78
2021/12/10 06:52:47;;;;;;;12.00;4.55;;;4.30;83.40;;;;;;4987121;28;20035;-79
2021/12/10 06:55:15;;;;;;;8.65;3.92;;;4.20;83.40;;;;;;4991600;28;20037;-79
2021/12/10 06:57:41;;;;;;;9.15;4.50;;;4.30;83.50;;;;;;4996524;28;20657;-79
2021/12/10 07:00:12;;;;;;;8.00;3.97;;;4.30;83.40;;;;;;4989622;28;20109;-79
2021/12/10 07:02:38;;;;;;;7.40;3.80;;;4.20;83.30;;;;;;4990094;28;20030;-79
2021/12/10 07:05:04;;;;;;;10.10;4.13;;;4.10;83.30;;;;;;4991780;28;20053;-79
2021/12/10 07:07:32;;;;;;;8.30;3.85;;;4.10;83.50;;;;;;4989100;28;20038;-80
2021/12/10 07:10:01;;;;;;;8.52;3.78;;;4.10;83.70;;;;;;4992520;28;20404;-79
2021/12/10 07:12:27;;;;;;;9.52;4.00;;;4.10;83.80;;;;;;4988266;28;20029;-79
2021/12/10 07:14:56;;;;;;;9.57;4.50;;;4.20;83.80;;;;;;4986242;28;20838;-80
2021/12/10 07:17:21;;;;;;;10.63;4.28;;;4.20;83.70;;;;;;4990703;28;20469;-79
2021/12/10 07:19:47;;;;;;;7.93;3.90;;;4.10;83.50;;;;;;4989589;28;20102;-79
2021/12/10 07:22:13;;;;;;;9.15;4.20;;;4.10;83.60;;;;;;4995464;28;20045;-79
2021/12/10 07:24:38;;;;;;;8.82;4.32;;;4.10;83.60;;;;;;4994725;28;20094;-79
2021/12/10 07:27:08;;;;;;;6.97;3.45;;;4.10;83.80;;;;;;4988876;28;20036;-77
2021/12/10 07:29:33;;;;;;;9.73;3.72;;;4.10;83.60;;;;;;4985155;28;20549;-77
2021/12/10 07:31:59;;;;;;;6.95;3.45;;;4.00;83.50;;;;;;4986963;28;20026;-74
2021/12/10 07:34:25;;;;;;;9.30;3.70;;;4.00;83.60;;;;;;4982171;28;20027;-81
2021/12/10 07:36:50;;;;;;;8.30;3.88;;;4.00;83.70;;;;;;4980361;28;20027;-78
2021/12/10 07:39:16;;;;;;;6.28;3.10;;;4.00;83.60;;;;;;4996130;28;20435;-80
2021/12/10 07:41:41;;;;;;;7.75;3.97;;;4.00;83.80;;;;;;4985413;28;20474;-79
2021/12/10 07:44:08;;;;;;;9.18;4.07;;;4.00;83.60;;;;;;4985542;28;20949;-78
2021/12/10 07:46:34;;;;;;;7.85;3.75;;;4.10;83.60;;;;;;4987552;28;20056;-78
2021/12/10 07:49:02;;;;;;;7.28;3.85;;;4.10;83.60;;;;;;4990245;28;20066;-77
2021/12/10 07:51:29;;;;;;;5.60;3.40;;;4.00;83.60;;;;;;4989435;28;20029;-76
2021/12/10 07:53:57;;;;;;;6.60;3.50;;;4.20;83.70;;;;;;4984154;28;20030;-80
2021/12/10 07:56:25;;;;;;;10.63;4.40;;;4.20;83.70;;;;;;4985873;28;20045;-78
2021/12/10 07:58:51;;;;;;;9.00;3.88;;;4.10;83.40;;;;;;4983868;28;20033;-79
2021/12/10 08:01:24;;;;;;;7.88;3.53;;;4.20;83.50;;;;;;4976617;28;20030;-76
2021/12/10 08:03:51;;;;;;;10.05;3.85;;;4.20;83.40;;;;;;4986141;28;20489;-78
2021/12/10 08:06:18;;;;;;;7.88;3.50;;;4.20;83.40;;;;;;4993652;28;20037;-76
2021/12/10 08:08:44;;;;;;;9.43;3.60;;;4.20;83.30;;;;;;4989936;28;20038;-78
2021/12/10 08:11:10;;;;;;;7.45;4.10;;;4.20;83.40;;;;;;4990518;28;20038;-78
2021/12/10 08:13:35;;;;;;;8.45;3.63;;;4.20;83.20;;;;;;4986496;28;20038;-79
2021/12/10 08:16:02;;;;;;;10.65;4.47;;;4.20;83.20;;;;;;4989968;28;20109;-76
2021/12/10 08:18:27;;;;;;;9.98;4.40;;;4.20;83.20;;;;;;4989043;28;20018;-76
2021/12/10 08:20:53;;;;;;;8.70;3.92;;;4.20;83.10;;;;;;4990608;28;20433;-78
2021/12/10 08:23:19;;;;;;;10.15;4.80;;;4.20;83.20;;;;;;4992110;28;20030;-76
2021/12/10 08:25:46;;;;;;;8.32;3.95;;;4.20;83.00;;;;;;4990777;28;20428;-75
2021/12/10 08:28:11;;;;;;;7.35;3.90;;;4.10;83.00;;;;;;4987487;28;20054;-77
2021/12/10 08:30:39;;;;;;;9.70;3.80;;;4.20;83.30;;;;;;4983032;28;20034;-74
2021/12/10 08:33:11;;;;;;;9.52;4.03;;;4.20;83.20;;;;;;4983726;28;20080;-74
2021/12/10 08:35:38;;;;;;;8.13;3.65;;;4.20;83.10;;;;;;4975522;28;20027;-75
2021/12/10 08:38:04;;;;;;;6.30;3.10;;;4.20;83.10;;;;;;4982108;28;20030;-77
2021/12/10 08:40:35;;;;;;;7.38;3.58;;;4.30;83.20;;;;;;4978232;28;20039;-80
2021/12/10 08:43:01;;;;;;;8.88;3.80;;;4.30;83.20;;;;;;4976618;28;20018;-78
2021/12/10 08:45:28;;;;;;;9.57;3.92;;;4.30;82.90;;;;;;4975952;28;20080;-79
2021/12/10 08:47:54;;;;;;;7.65;4.00;;;4.20;82.90;;;;;;4980929;28;20125;-78
2021/12/10 08:50:23;;;;;;;8.40;3.42;;;4.20;83.00;;;;;;4978258;28;20034;-76
2021/12/10 08:52:51;;;;;;;7.07;3.90;;;4.30;83.10;;;;;;4978623;28;20421;-78
2021/12/10 08:55:17;;;;;;;6.35;3.28;;;4.30;82.80;;;;;;4976453;28;20058;-78
2021/12/10 08:57:44;;;;;;;8.00;3.83;;;4.30;82.80;;;;;;4979270;28;20062;-78
2021/12/10 09:00:11;;;;;;;11.15;4.13;;;4.30;82.80;;;;;;4972791;28;20101;-78
2021/12/10 09:02:38;;;;;;;7.70;3.63;;;4.30;82.80;;;;;;4985487;28;20045;-78
2021/12/10 09:05:08;;;;;;;8.68;4.20;;;4.40;82.90;;;;;;4977891;28;20125;-79
2021/12/10 09:07:34;;;;;;;8.30;4.25;;;4.40;82.70;;;;;;4981918;28;20038;-79
2021/12/10 09:10:00;;;;;;;9.43;4.22;;;4.30;82.70;;;;;;4979730;28;20022;-78
2021/12/10 09:12:27;;;;;;;7.03;3.70;;;4.40;82.70;;;;;;4978543;28;20030;-77
2021/12/10 09:14:56;;;;;;;9.18;3.85;;;4.40;82.60;;;;;;4977427;28;20631;-78
2021/12/10 09:17:25;;;;;;;10.82;4.40;;;4.40;82.50;;;;;;4976350;28;20190;-78
2021/12/10 09:19:53;;;;;;;6.90;3.53;;;4.40;82.40;;;;;;4982484;28;20049;-79
2021/12/10 09:22:19;;;;;;;8.55;3.53;;;4.50;82.50;;;;;;4979661;28;20046;-79
2021/12/10 09:24:46;;;;;;;8.95;4.43;;;4.60;82.50;;;;;;4982370;28;20043;-76
2021/12/10 09:27:13;;;;;;;11.35;4.43;;;4.60;82.40;;;;;;4979650;28;20034;-77
2021/12/10 09:29:43;;;;;;;7.30;3.60;;;4.60;82.20;;;;;;4978476;28;20125;-78
2021/12/10 09:32:11;;;;;;;8.23;3.70;;;4.60;82.20;;;;;;4983985;28;20030;-76
2021/12/10 09:34:37;;;;;;;7.95;3.92;;;4.70;82.10;;;;;;4979878;28;20382;-78
2021/12/10 09:37:03;;;;;;;6.57;3.70;;;4.70;82.00;;;;;;4979424;28;20025;-80
2021/12/10 09:39:31;;;;;;;8.07;3.63;;;4.70;81.90;;;;;;4979707;28;20037;-77
2021/12/10 09:41:57;;;;;;;6.07;3.42;;;4.70;81.80;;;;;;4977521;28;20030;-77
2021/12/10 09:44:23;;;;;;;6.82;3.40;;;4.70;81.70;;;;;;4983100;28;20505;-78
2021/12/10 09:46:51;;;;;;;7.10;3.50;;;4.80;81.70;;;;;;4980473;28;20367;-78
2021/12/10 09:49:17;;;;;;;7.35;3.88;;;4.80;81.70;;;;;;4984191;28;20034;-74
2021/12/10 09:52:04;;;;;;;6.18;3.40;;;4.80;81.60;;;;;;4982956;28;20081;-79
2021/12/10 09:54:32;;;;;;;6.13;3.17;;;4.80;81.60;;;;;;4981576;28;20049;-76
2021/12/10 09:57:05;;;;;;;8.77;4.43;;;4.90;81.40;;;;;;4981868;28;20677;-77
2021/12/10 09:59:34;;;;;;;6.20;3.63;;;4.80;80.90;;;;;;4976612;28;20031;-76
2021/12/10 10:02:00;;;;;;;8.40;3.58;;;4.80;81.10;;;;;;4982981;28;20025;-76
2021/12/10 10:04:28;;;;;;;8.20;3.50;;;4.90;81.20;;;;;;4980029;28;20030;-78
2021/12/10 10:06:59;;;;;;;7.63;3.50;;;4.90;81.00;;;;;;4989997;28;20049;-76
2021/12/10 10:09:25;;;;;;;5.45;3.10;;;4.90;81.10;;;;;;4977212;28;20027;-77
2021/12/10 10:11:57;;;;;;;6.70;3.13;;;4.90;81.10;;;;;;4981697;28;20808;-75
2021/12/10 10:14:23;;;;;;;5.78;2.97;;;5.00;81.10;;;;;;4977310;28;20030;-77
2021/12/10 10:16:50;;;;;;;7.85;4.20;;;5.00;80.90;;;;;;4983559;28;20019;-76
2021/12/10 10:19:17;;;;;;;11.80;4.00;;;5.00;80.70;;;;;;4978794;28;20062;-77
2021/12/10 10:21:48;;;;;;;7.28;3.50;;;5.00;80.60;;;;;;4979770;28;20031;-78
2021/12/10 10:24:14;;;;;;;5.03;2.90;;;4.90;80.30;;;;;;4977791;28;20085;-78
2021/12/10 10:26:48;;;;;;;7.25;3.63;;;5.00;80.60;;;;;;4979715;28;20030;-76
2021/12/10 10:29:17;;;;;;;7.75;3.28;;;5.00;80.60;;;;;;4974521;28;20026;-77
2021/12/10 10:31:54;;;;;;;10.50;3.33;;;5.10;80.60;;;;;;4980055;28;20093;-76
2021/12/10 10:34:21;;;;;;;6.80;3.42;;;5.10;80.50;;;;;;4974682;28;20031;-77
2021/12/10 10:36:47;;;;;;;6.32;3.78;;;5.10;80.60;;;;;;4975135;28;20041;-75
2021/12/10 10:39:17;;;;;;;8.57;3.45;;;5.10;80.30;;;;;;4974534;28;20041;-75
2021/12/10 10:41:46;;;;;;;7.75;3.47;;;5.10;80.10;;;;;;4978676;28;20035;-75
2021/12/10 10:44:12;;;;;;;7.15;3.30;;;5.10;80.10;;;;;;4976775;28;20030;-78
2021/12/10 10:46:38;;;;;;;7.50;3.88;;;5.10;80.10;;;;;;4981038;28;20043;-80
2021/12/10 10:49:05;;;;;;;6.47;3.15;;;5.10;79.80;;;;;;4978871;28;20879;-78
2021/12/10 10:51:34;;;;;;;5.95;3.22;;;5.10;79.90;;;;;;4973394;28;20035;-78
2021/12/10 10:54:04;;;;;;;7.05;3.00;;;5.20;79.80;;;;;;4987094;28;20508;-76
2021/12/10 10:56:36;;;;;;;7.13;2.90;;;5.30;79.90;;;;;;4981438;28;20023;-77
2021/12/10 10:59:14;;;;;;;8.43;2.90;;;5.30;79.80;;;;;;4979911;28;20125;-77
2021/12/10 11:01:58;;;;;;;6.05;2.80;;;5.30;79.60;;;;;;4980996;28;20027;-76
2021/12/10 11:04:33;;;;;;;6.65;2.88;;;5.40;79.40;;;;;;4985162;28;20033;-78
2021/12/10 11:07:11;;;;;;;8.10;2.70;;;5.40;79.10;;;;;;4985516;28;20065;-77
2021/12/10 11:10:02;;;;;;;7.35;2.55;;;5.40;78.90;;;;;;4976456;28;20053;-77
2021/12/10 11:12:35;;;;;;;7.10;2.90;;;5.50;78.80;;;;;;4979196;28;20030;-76
2021/12/10 11:15:06;;;;;;;;;;;5.50;78.40;;;;;;4978082;28;20022;-79
2021/12/10 11:17:40;;;;;;;6.45;2.50;;;5.50;78.20;;;;;;4983765;28;20316;-78
2021/12/10 11:20:23;;;;;;;5.35;2.50;;;5.50;78.20;;;;;;4984204;28;20030;-76
2021/12/10 11:22:56;;;;;;;6.28;2.20;;;5.60;78.30;;;;;;4977846;28;20034;-78
2021/12/10 11:25:36;;;;;;;5.93;2.78;;;5.60;78.20;;;;;;4982472;28;20037;-77
2021/12/10 11:28:18;;;;;;;6.25;2.78;;;5.70;78.20;;;;;;4984685;28;20441;-78
2021/12/10 11:30:51;;;;;;;6.53;2.58;;;5.70;78.10;;;;;;4982112;28;20522;-78
2021/12/10 11:33:25;;;;;;;6.40;2.53;;;5.70;78.20;;;;;;4984136;28;20085;-77
2021/12/10 11:35:52;;;;;;;10.52;2.90;;;5.70;78.30;;;;;;4979867;28;21110;-77
2021/12/10 11:38:23;;;;;;;7.43;2.95;;;5.70;78.10;;;;;;4984777;28;20030;-76
2021/12/10 11:41:05;;;;;;;5.40;2.40;;;5.70;78.30;;;;;;4975903;28;20057;-77
2021/12/10 11:43:56;;;;;;;8.40;3.05;;;5.70;78.20;;;;;;4988323;28;20058;-77
2021/12/10 11:49:17;;;;;;;6.95;2.65;;;5.80;77.90;;;;;;4981617;28;20046;-77
2021/12/10 11:52:03;;;;;;;7.10;2.95;;;5.80;77.60;;;;;;4977126;28;20034;-77
2021/12/10 11:54:53;;;;;;;6.05;2.70;;;5.80;77.20;;;;;;4974001;28;20035;-78
2021/12/10 11:57:21;;;;;;;4.55;2.20;;;5.80;77.30;;;;;;4986463;28;20034;-77
2021/12/10 12:00:16;;;;;;;7.45;2.67;;;5.90;77.20;;;;;;4980668;28;20054;-77
2021/12/10 12:02:47;;;;;;;6.57;3.00;;;5.90;77.00;;;;;;4986061;28;20034;-76
2021/12/10 12:05:17;;;;;;;7.38;2.90;;;5.90;76.20;;;;;;4983825;28;20030;-76
2021/12/10 12:07:48;;;;;;;5.22;2.35;;;5.80;75.90;;;;;;4983136;28;20129;-78
2021/12/10 12:10:39;;;;;;;7.13;2.85;;;5.90;76.30;;;;;;4977217;28;20027;-77
2021/12/10 12:13:21;;;;;;;6.57;3.40;;;5.90;76.10;;;;;;4981059;28;20033;-78
2021/12/10 12:15:55;;;;;;;5.25;2.30;;;5.90;75.30;;;;;;4984268;28;20112;-78
2021/12/10 12:18:36;;;;;;;5.78;2.50;;;5.90;75.70;;;;;;4981595;28;20504;-77
2021/12/10 12:27:12;;;;;;;5.88;2.38;;;6.00;75.40;;;;;;4976311;28;20108;-76
2021/12/10 12:29:53;;;;;;;7.05;2.80;;;6.00;75.00;;;;;;4981123;28;20747;-74
2021/12/10 12:32:25;;;;;;;4.18;2.47;;;6.00;74.50;;;;;;4984621;28;20109;-75
2021/12/10 12:34:51;;;;;;;5.88;2.22;;;6.00;74.90;;;;;;4979852;28;20034;-78
2021/12/10 12:37:19;;;;;;;7.28;2.50;;;6.00;74.90;;;;;;4984441;28;20464;-78
2021/12/10 12:39:49;;;;;;;7.45;2.95;;;6.10;75.00;;;;;;4985298;28;20022;-78
2021/12/10 12:42:23;;;;;;;6.95;2.92;;;6.00;74.40;;;;;;4985391;28;20041;-77
2021/12/10 12:45:02;;;;;;;7.18;2.70;;;6.00;74.40;;;;;;4988583;28;20033;-77
2021/12/10 12:47:29;;;;;;;5.85;2.67;;;6.10;74.60;;;;;;4986635;28;20042;-78
2021/12/10 12:50:39;;;;;;;5.40;2.35;;;6.00;74.10;;;;;;4976271;28;20421;-78
2021/12/10 12:53:15;;;;;;;5.70;2.47;;;6.10;74.40;;;;;;5023025;28;20099;-78
2021/12/10 12:55:49;;;;;;;5.70;2.50;;;6.10;74.60;;;;;;5020910;28;20026;-77
2021/12/10 12:58:22;;;;;;;5.57;2.30;;;6.10;74.10;;;;;;4999791;28;20437;-77
2021/12/10 13:01:01;;;;;;;7.10;2.58;;;6.10;74.20;;;;;;4978648;28;20039;-77
2021/12/10 13:03:39;;;;;;;5.63;2.40;;;6.10;74.30;;;;;;4988028;28;20392;-76
2021/12/10 13:06:26;;;;;;;6.55;2.67;;;6.10;74.40;;;;;;4978307;28;20085;-76
2021/12/10 13:08:58;;;;;;;4.82;2.35;;;6.10;74.00;;;;;;4979922;28;20084;-81
2021/12/10 13:11:48;;;;;;;5.17;2.60;;;6.10;74.10;;;;;;4979974;28;20092;-80
2021/12/10 13:14:20;;;;;;;4.32;2.25;;;6.10;74.50;;;;;;4976536;28;20096;-79
2021/12/10 13:16:59;;;;;;;2.90;1.92;;;6.20;74.70;;;;;;4982337;28;20458;-78
2021/12/10 13:19:28;;;;;;;5.82;2.38;;;6.20;74.80;;;;;;4981250;28;20032;-78
2021/12/10 13:22:10;;;;;;;7.00;3.20;;;6.20;74.80;;;;;;4979580;28;20593;-76
2021/12/10 13:24:38;;;;;;;5.00;2.60;;;6.20;75.00;;;;;;4981246;28;20503;-76